Terminal Aerodrome Forecast
Issued by NWS

Home | Current Version | Previous Version | Text Only | Print | Product List | Glossary On
Versions: 1 2 3 4 5 6 7 8 9 10 11 12 13 14 15 16 17 18 19 20 21 22 23 24 25 26 27 28 29 30 31 32 33 34 35 36 37 38 39 40 41 42 43 44 45 46 47
000
FTUS45 KBOI 200534
TAFMYL
TAF
KMYL 200534Z 2006/2106 VRB03KT 1/2SM FZFG OVC005
     FM201000 VRB03KT 2SM -SHSN BR BKN005 OVC015
      TEMPO 2017/2021 3SM -SHRASN SCT007 OVC015
     FM202100 14008KT 2SM RA BR OVC015=

USA.gov is the U.S. government's official web portal to all federal, state and local government web resources and services.